createdAt,value
2023-03-22T00:00:59.065Z,966.18
2023-03-22T00:01:59.232Z,966.20
2023-03-22T00:02:59.063Z,966.18
2023-03-22T00:03:59.141Z,966.17
2023-03-22T00:04:58.971Z,966.18
2023-03-22T00:05:59.068Z,966.20
2023-03-22T00:06:58.962Z,966.18
2023-03-22T00:07:59.112Z,966.20
2023-03-22T00:08:58.962Z,966.17
2023-03-22T00:09:58.959Z,966.17
2023-03-22T00:10:58.885Z,966.19
2023-03-22T00:11:58.993Z,966.21
2023-03-22T00:12:58.900Z,966.15
2023-03-22T00:13:58.980Z,966.17
2023-03-22T00:14:58.894Z,966.16
2023-03-22T00:15:58.911Z,966.13
2023-03-22T00:16:58.842Z,966.17
2023-03-22T00:17:59.119Z,966.16
2023-03-22T00:18:58.790Z,966.15
2023-03-22T00:19:58.963Z,966.16
2023-03-22T00:20:58.754Z,966.17
2023-03-22T00:21:58.874Z,966.18
2023-03-22T00:22:58.792Z,966.15
2023-03-22T00:23:58.874Z,966.15
2023-03-22T00:24:58.843Z,966.15
2023-03-22T00:25:58.922Z,966.18
2023-03-22T00:26:58.701Z,966.15
2023-03-22T00:27:58.809Z,966.16
2023-03-22T00:28:58.709Z,966.18
2023-03-22T00:29:58.692Z,966.16
2023-03-22T00:31:00.376Z,966.18
2023-03-22T00:31:58.726Z,966.20
2023-03-22T00:32:58.895Z,966.20
2023-03-22T00:33:58.895Z,966.21
2023-03-22T00:34:58.674Z,966.21
2023-03-22T00:35:58.777Z,966.19
2023-03-22T00:36:58.686Z,966.17
2023-03-22T00:37:58.535Z,966.19
2023-03-22T00:38:58.696Z,966.19
2023-03-22T00:39:58.493Z,966.18
2023-03-22T00:40:58.796Z,966.16
2023-03-22T00:41:58.493Z,966.16
2023-03-22T00:42:58.610Z,966.14
2023-03-22T00:43:58.455Z,966.15
2023-03-22T00:44:58.634Z,966.16
2023-03-22T00:45:58.434Z,966.11
2023-03-22T00:46:58.672Z,966.12
2023-03-22T00:47:58.639Z,966.10
2023-03-22T00:48:58.646Z,966.08
2023-03-22T00:49:58.392Z,966.04
2023-03-22T00:50:58.549Z,966.04
2023-03-22T00:51:58.410Z,966.06
2023-03-22T00:52:58.513Z,966.01
2023-03-22T00:53:58.347Z,965.96
2023-03-22T00:54:58.665Z,965.96
2023-03-22T00:55:58.294Z,965.93
2023-03-22T00:56:58.444Z,965.91
2023-03-22T00:57:58.269Z,965.90
2023-03-22T00:58:58.410Z,965.88
2023-03-22T00:59:58.283Z,965.86
2023-03-22T01:00:58.519Z,965.83
2023-03-22T01:01:58.265Z,965.83
2023-03-22T01:02:58.355Z,965.83
2023-03-22T01:03:58.427Z,965.85
2023-03-22T01:04:58.226Z,965.86
2023-03-22T01:05:58.349Z,965.84
2023-03-22T01:06:58.185Z,965.90
2023-03-22T01:07:58.303Z,965.91
2023-03-22T01:08:58.181Z,965.91
2023-03-22T01:09:58.249Z,965.91
2023-03-22T01:10:58.150Z,965.87
2023-03-22T01:11:58.391Z,965.84
2023-03-22T01:12:58.146Z,965.79
2023-03-22T01:13:58.242Z,965.78
2023-03-22T01:14:58.078Z,965.75
2023-03-22T01:15:58.185Z,965.73
2023-03-22T01:16:58.070Z,965.74
2023-03-22T01:17:58.155Z,965.78
2023-03-22T01:18:58.063Z,965.78
2023-03-22T01:19:58.128Z,965.79
2023-03-22T01:20:58.015Z,965.78
2023-03-22T01:21:58.132Z,965.75
2023-03-22T01:22:57.995Z,965.74
2023-03-22T01:23:58.110Z,965.73
2023-03-22T01:24:58.097Z,965.72
2023-03-22T01:25:57.907Z,965.73
2023-03-22T01:26:57.980Z,965.69
2023-03-22T01:27:57.889Z,965.68
2023-03-22T01:28:58.046Z,965.68
2023-03-22T01:29:57.989Z,965.66
2023-03-22T01:31:09.027Z,965.70
2023-03-22T01:31:57.836Z,965.60
2023-03-22T01:32:57.992Z,965.63
2023-03-22T01:33:57.808Z,965.64
2023-03-22T01:34:58.039Z,965.65
2023-03-22T01:35:57.926Z,965.60
2023-03-22T01:36:57.852Z,965.55
2023-03-22T01:37:57.773Z,965.56
2023-03-22T01:38:57.963Z,965.52
2023-03-22T01:39:57.742Z,965.55
2023-03-22T01:40:57.914Z,965.57
2023-03-22T01:41:57.752Z,965.54
2023-03-22T01:42:57.853Z,965.58
2023-03-22T01:43:57.688Z,965.59
2023-03-22T01:44:58.730Z,965.55
2023-03-22T01:45:57.932Z,965.55
2023-03-22T01:46:57.720Z,965.54
2023-03-22T01:47:57.898Z,965.56
2023-03-22T01:48:57.736Z,965.53
2023-03-22T01:49:57.732Z,965.52
2023-03-22T01:50:57.635Z,965.52
2023-03-22T01:51:57.796Z,965.49
2023-03-22T01:52:57.595Z,965.46
2023-03-22T01:53:57.653Z,965.46
2023-03-22T01:54:57.578Z,965.45
2023-03-22T01:55:57.792Z,965.44
2023-03-22T01:56:57.575Z,965.45
2023-03-22T01:57:57.578Z,965.42
2023-03-22T01:58:57.521Z,965.47
2023-03-22T01:59:57.610Z,965.44
2023-03-22T02:00:57.493Z,965.45
2023-03-22T02:01:57.663Z,965.41
2023-03-22T02:02:57.504Z,965.39
2023-03-22T02:03:57.632Z,965.36
2023-03-22T02:04:57.435Z,965.33
2023-03-22T02:05:57.529Z,965.34
2023-03-22T02:06:57.451Z,965.34
2023-03-22T02:07:57.487Z,965.29
2023-03-22T02:08:57.391Z,965.33
2023-03-22T02:09:57.440Z,965.29
2023-03-22T02:10:58.093Z,965.31
2023-03-22T02:11:57.640Z,965.29
2023-03-22T02:12:57.368Z,965.32
2023-03-22T02:13:57.482Z,965.31
2023-03-22T02:14:57.327Z,965.30
2023-03-22T02:15:57.449Z,965.25
2023-03-22T02:16:57.418Z,965.30
2023-03-22T02:17:57.248Z,965.32
2023-03-22T02:18:57.488Z,965.32
2023-03-22T02:19:57.236Z,965.28
2023-03-22T02:20:57.347Z,965.28
2023-03-22T02:21:57.332Z,965.25
2023-03-22T02:22:57.217Z,965.29
2023-03-22T02:23:57.392Z,965.25
2023-03-22T02:24:57.240Z,965.27
2023-03-22T02:25:57.358Z,965.25
2023-03-22T02:26:57.229Z,965.26
2023-03-22T02:27:57.133Z,965.24
2023-03-22T02:28:57.408Z,965.26
2023-03-22T02:29:57.244Z,965.28
2023-03-22T02:30:57.203Z,965.29
2023-03-22T02:31:57.075Z,965.23
2023-03-22T02:32:57.217Z,965.21
2023-03-22T02:33:57.057Z,965.22
2023-03-22T02:34:57.292Z,965.21
2023-03-22T02:35:57.070Z,965.20
2023-03-22T02:36:57.176Z,965.20
2023-03-22T02:37:57.002Z,965.21
2023-03-22T02:38:57.164Z,965.18
2023-03-22T02:39:57.020Z,965.18
2023-03-22T02:40:57.226Z,965.15
2023-03-22T02:41:56.949Z,965.17
2023-03-22T02:42:57.212Z,965.16
2023-03-22T02:43:56.923Z,965.18
2023-03-22T02:44:57.028Z,965.19
2023-03-22T02:45:56.946Z,965.18
2023-03-22T02:46:57.100Z,965.21
2023-03-22T02:47:57.036Z,965.19
2023-03-22T02:48:56.901Z,965.18
2023-03-22T02:49:57.024Z,965.18
2023-03-22T02:50:56.891Z,965.21
2023-03-22T02:51:57.034Z,965.23
2023-03-22T02:52:57.117Z,965.18
2023-03-22T02:53:56.803Z,965.19
2023-03-22T02:54:56.975Z,965.23
2023-03-22T02:55:56.812Z,965.26
2023-03-22T02:56:56.892Z,965.22
2023-03-22T02:57:56.757Z,965.26
2023-03-22T02:58:56.999Z,965.23
2023-03-22T02:59:56.712Z,965.24
2023-03-22T03:00:56.972Z,965.21
2023-03-22T03:01:56.739Z,965.20
2023-03-22T03:02:56.714Z,965.20
2023-03-22T03:03:56.693Z,965.17
2023-03-22T03:04:56.964Z,965.19
2023-03-22T03:05:56.641Z,965.20
2023-03-22T03:06:56.797Z,965.21
2023-03-22T03:07:56.650Z,965.21
2023-03-22T03:08:56.693Z,965.22
2023-03-22T03:09:56.618Z,965.19
2023-03-22T03:10:56.672Z,965.22
2023-03-22T03:11:56.568Z,965.24
2023-03-22T03:12:56.688Z,965.21
2023-03-22T03:13:56.685Z,965.23
2023-03-22T03:14:56.577Z,965.22
2023-03-22T03:15:56.723Z,965.20
2023-03-22T03:16:56.521Z,965.20
2023-03-22T03:17:56.722Z,965.22
2023-03-22T03:18:56.576Z,965.19
2023-03-22T03:19:56.492Z,965.25
2023-03-22T03:20:56.531Z,965.21
2023-03-22T03:21:56.442Z,965.26
2023-03-22T03:22:56.597Z,965.27
2023-03-22T03:23:56.421Z,965.28
2023-03-22T03:24:56.575Z,965.27
2023-03-22T03:25:56.392Z,965.30
2023-03-22T03:26:56.606Z,965.25
2023-03-22T03:27:56.393Z,965.25
2023-03-22T03:28:56.505Z,965.25
2023-03-22T03:29:56.342Z,965.29
2023-03-22T03:30:56.504Z,965.29
2023-03-22T03:31:56.375Z,965.31
2023-03-22T03:32:56.519Z,965.32
2023-03-22T03:33:56.310Z,965.34
2023-03-22T03:34:56.326Z,965.32
2023-03-22T03:35:56.790Z,965.37
2023-03-22T03:36:56.387Z,965.35
2023-03-22T03:37:56.280Z,965.35
2023-03-22T03:38:56.347Z,965.32
2023-03-22T03:39:56.407Z,965.32
2023-03-22T03:40:56.207Z,965.33
2023-03-22T03:41:56.377Z,965.36
2023-03-22T03:42:56.173Z,965.39
2023-03-22T03:43:56.402Z,965.37
2023-03-22T03:44:56.185Z,965.35
2023-03-22T03:45:56.279Z,965.39
2023-03-22T03:46:56.139Z,965.39
2023-03-22T03:47:56.250Z,965.41
2023-03-22T03:48:56.149Z,965.47
2023-03-22T03:49:56.293Z,965.49
2023-03-22T03:50:56.089Z,965.48
2023-03-22T03:51:56.247Z,965.51
2023-03-22T03:52:56.097Z,965.52
2023-03-22T03:53:56.261Z,965.52
2023-03-22T03:54:56.053Z,965.50
2023-03-22T03:55:56.055Z,965.51
2023-03-22T03:56:56.019Z,965.50
2023-03-22T03:57:56.184Z,965.50
2023-03-22T03:58:55.973Z,965.46
2023-03-22T03:59:56.245Z,965.49
2023-03-22T04:00:56.018Z,965.53
2023-03-22T04:01:55.966Z,965.56
2023-03-22T04:02:56.109Z,965.54
2023-03-22T04:03:55.976Z,965.55
2023-03-22T04:04:56.146Z,965.58
2023-03-22T04:05:55.961Z,965.59
2023-03-22T04:06:55.923Z,965.56
2023-03-22T04:07:55.886Z,965.54
2023-03-22T04:08:55.932Z,965.55
2023-03-22T04:09:55.920Z,965.56
2023-03-22T04:10:56.000Z,965.51
2023-03-22T04:11:55.873Z,965.54
2023-03-22T04:12:55.975Z,965.56
2023-03-22T04:13:55.808Z,965.53
2023-03-22T04:14:55.982Z,965.53
2023-03-22T04:15:55.800Z,965.55
2023-03-22T04:16:55.977Z,965.56
2023-03-22T04:17:55.749Z,965.56
2023-03-22T04:18:55.896Z,965.55
2023-03-22T04:19:55.745Z,965.56
2023-03-22T04:20:55.745Z,965.53
2023-03-22T04:21:55.705Z,965.52
2023-03-22T04:22:55.787Z,965.54
2023-03-22T04:23:55.695Z,965.49
2023-03-22T04:24:55.740Z,965.51
2023-03-22T04:25:55.656Z,965.49
2023-03-22T04:26:55.801Z,965.52
2023-03-22T04:27:55.655Z,965.53
2023-03-22T04:28:55.765Z,965.55
2023-03-22T04:29:55.597Z,965.47
2023-03-22T04:30:55.842Z,965.48
2023-03-22T04:31:55.606Z,965.49
2023-03-22T04:32:55.598Z,965.42
2023-03-22T04:33:55.554Z,965.42
2023-03-22T04:34:55.623Z,965.41
2023-03-22T04:35:55.539Z,965.41
2023-03-22T04:36:55.571Z,965.38
2023-03-22T04:37:55.627Z,965.38
2023-03-22T04:38:55.531Z,965.34
2023-03-22T04:39:55.490Z,965.32
2023-03-22T04:40:55.561Z,965.30
2023-03-22T04:41:55.478Z,965.32
2023-03-22T04:42:55.453Z,965.32
2023-03-22T04:43:55.441Z,965.30
2023-03-22T04:44:55.519Z,965.33
2023-03-22T04:45:55.470Z,965.33
2023-03-22T04:46:55.537Z,965.34
2023-03-22T04:47:55.514Z,965.32
2023-03-22T04:48:55.351Z,965.31
2023-03-22T04:49:55.579Z,965.31
2023-03-22T04:50:55.323Z,965.27
2023-03-22T04:51:55.537Z,965.29
2023-03-22T04:52:55.294Z,965.32
2023-03-22T04:53:55.424Z,965.26
2023-03-22T04:54:55.309Z,965.25
2023-03-22T04:55:55.360Z,965.25
2023-03-22T04:56:55.260Z,965.22
2023-03-22T04:57:55.390Z,965.22
2023-03-22T04:58:55.214Z,965.23
2023-03-22T04:59:55.438Z,965.26
2023-03-22T05:00:55.402Z,965.20
2023-03-22T05:01:55.282Z,965.19
2023-03-22T05:02:55.346Z,965.17
2023-03-22T05:03:55.317Z,965.17
2023-03-22T05:04:55.157Z,965.15
2023-03-22T05:05:55.233Z,965.14
2023-03-22T05:06:55.116Z,965.13
2023-03-22T05:07:55.245Z,965.11
2023-03-22T05:08:55.096Z,965.13
2023-03-22T05:09:55.298Z,965.14
2023-03-22T05:10:55.081Z,965.12
2023-03-22T05:11:55.174Z,965.08
2023-03-22T05:12:55.028Z,965.05
2023-03-22T05:13:55.181Z,965.05
2023-03-22T05:14:55.014Z,965.06
2023-03-22T05:15:55.320Z,965.06
2023-03-22T05:16:55.087Z,965.04
2023-03-22T05:17:55.220Z,965.05
2023-03-22T05:18:54.967Z,965.03
2023-03-22T05:19:55.023Z,965.06
2023-03-22T05:20:54.963Z,965.05
2023-03-22T05:21:55.116Z,965.06
2023-03-22T05:22:54.932Z,965.05
2023-03-22T05:23:55.056Z,965.01
2023-03-22T05:24:54.902Z,965.03
2023-03-22T05:25:55.122Z,965.02
2023-03-22T05:26:54.900Z,965.01
2023-03-22T05:27:55.068Z,964.97
2023-03-22T05:28:54.984Z,965.03
2023-03-22T05:29:55.012Z,965.01
2023-03-22T05:30:57.121Z,965.03
2023-03-22T05:31:54.982Z,964.98
2023-03-22T05:32:54.819Z,965.00
2023-03-22T05:33:54.927Z,965.00
2023-03-22T05:34:54.961Z,964.98
2023-03-22T05:35:54.868Z,964.99
2023-03-22T05:36:54.937Z,964.98
2023-03-22T05:37:54.789Z,965.00
2023-03-22T05:38:54.876Z,964.99
2023-03-22T05:39:54.850Z,965.01
2023-03-22T05:40:54.706Z,965.05
2023-03-22T05:41:54.776Z,965.01
2023-03-22T05:42:54.675Z,965.06
2023-03-22T05:43:54.867Z,965.04
2023-03-22T05:44:54.850Z,965.03
2023-03-22T05:45:54.661Z,965.03
2023-03-22T05:46:54.827Z,964.99
2023-03-22T05:47:54.654Z,964.97
2023-03-22T05:48:54.861Z,964.96
2023-03-22T05:49:54.593Z,964.97
2023-03-22T05:50:54.653Z,964.96
2023-03-22T05:51:54.635Z,964.95
2023-03-22T05:52:54.618Z,964.95
2023-03-22T05:53:54.585Z,964.93
2023-03-22T05:54:55.237Z,964.91
2023-03-22T05:55:54.772Z,964.91
2023-03-22T05:56:55.806Z,964.91
2023-03-22T05:57:54.611Z,964.90
2023-03-22T05:58:54.484Z,964.92
2023-03-22T05:59:54.644Z,964.96
2023-03-22T06:00:54.451Z,964.92
2023-03-22T06:01:54.655Z,964.94
2023-03-22T06:02:54.472Z,964.94
2023-03-22T06:03:54.753Z,964.90
2023-03-22T06:05:00.776Z,964.92
2023-03-22T06:05:54.528Z,964.94
2023-03-22T06:06:54.392Z,964.94
2023-03-22T06:07:54.681Z,964.90
2023-03-22T06:08:56.455Z,964.94
2023-03-22T06:09:54.393Z,964.97
2023-03-22T06:10:54.460Z,964.93
2023-03-22T06:11:54.387Z,964.94
2023-03-22T06:12:54.524Z,964.94
2023-03-22T06:13:54.311Z,964.98
2023-03-22T06:14:54.434Z,964.97
2023-03-22T06:15:54.285Z,964.97
2023-03-22T06:16:54.557Z,964.97
2023-03-22T06:17:54.548Z,964.97
2023-03-22T06:18:54.310Z,965.03
2023-03-22T06:19:54.250Z,964.98
2023-03-22T06:20:54.353Z,964.99
2023-03-22T06:21:54.235Z,965.01
2023-03-22T06:22:54.366Z,964.99
2023-03-22T06:23:54.195Z,965.02
2023-03-22T06:24:54.343Z,965.03
2023-03-22T06:25:54.184Z,965.01
2023-03-22T06:26:54.338Z,965.01
2023-03-22T06:27:54.150Z,965.02
2023-03-22T06:28:54.280Z,964.98
2023-03-22T06:29:54.104Z,964.98
2023-03-22T06:30:54.254Z,965.00
2023-03-22T06:31:54.245Z,965.00
2023-03-22T06:32:54.065Z,965.01
2023-03-22T06:33:55.929Z,965.00
2023-03-22T06:34:54.128Z,965.04
2023-03-22T06:35:54.290Z,965.06
2023-03-22T06:36:54.019Z,965.05
2023-03-22T06:37:54.292Z,965.10
2023-03-22T06:38:53.965Z,965.11
2023-03-22T06:39:54.137Z,965.10
2023-03-22T06:40:53.957Z,965.15
2023-03-22T06:41:54.054Z,965.14
2023-03-22T06:42:53.907Z,965.20
2023-03-22T06:43:54.032Z,965.21
2023-03-22T06:44:53.902Z,965.23
2023-03-22T06:45:54.016Z,965.19
2023-03-22T06:46:53.845Z,965.22
2023-03-22T06:47:54.096Z,965.26
2023-03-22T06:48:53.873Z,965.19
2023-03-22T06:49:54.013Z,965.20
2023-03-22T06:50:53.995Z,965.21
2023-03-22T06:51:54.035Z,965.27
2023-03-22T06:52:53.944Z,965.26
2023-03-22T06:53:54.038Z,965.29
2023-03-22T06:54:53.797Z,965.30
2023-03-22T06:55:55.451Z,965.30
2023-03-22T06:56:53.737Z,965.28
2023-03-22T06:57:53.890Z,965.31
2023-03-22T06:58:53.709Z,965.31
2023-03-22T06:59:53.934Z,965.34
2023-03-22T07:00:53.686Z,965.32
2023-03-22T07:01:53.902Z,965.30
2023-03-22T07:02:53.664Z,965.33
2023-03-22T07:03:53.934Z,965.36
2023-03-22T07:04:53.641Z,965.28
2023-03-22T07:05:53.758Z,965.34
2023-03-22T07:06:54.321Z,965.34
2023-03-22T07:07:53.746Z,965.31
2023-03-22T07:08:53.586Z,965.29
2023-03-22T07:09:53.771Z,965.29
2023-03-22T07:10:53.568Z,965.29
2023-03-22T07:11:53.824Z,965.23
2023-03-22T07:12:53.724Z,965.22
2023-03-22T07:13:53.586Z,965.22
2023-03-22T07:14:53.669Z,965.19
2023-03-22T07:15:53.618Z,965.20
2023-03-22T07:16:53.674Z,965.20
2023-03-22T07:17:53.492Z,965.19
2023-03-22T07:18:53.711Z,965.21
2023-03-22T07:19:53.536Z,965.22
2023-03-22T07:20:53.734Z,965.22
2023-03-22T07:21:53.449Z,965.25
2023-03-22T07:22:53.615Z,965.19
2023-03-22T07:23:53.444Z,965.16
2023-03-22T07:24:57.609Z,965.16
2023-03-22T07:25:53.417Z,965.17
2023-03-22T07:26:53.669Z,965.18
2023-03-22T07:27:53.375Z,965.16
2023-03-22T07:28:53.509Z,965.17
2023-03-22T07:29:53.359Z,965.17
2023-03-22T07:30:53.464Z,965.17
2023-03-22T07:31:53.389Z,965.17
2023-03-22T07:32:53.475Z,965.20
2023-03-22T07:33:53.353Z,965.21
2023-03-22T07:34:53.305Z,965.27
2023-03-22T07:35:53.434Z,965.27
2023-03-22T07:36:53.270Z,965.30
2023-03-22T07:37:53.333Z,965.30
2023-03-22T07:38:53.393Z,965.27
2023-03-22T07:39:53.244Z,965.31
2023-03-22T07:40:53.383Z,965.30
2023-03-22T07:41:53.192Z,965.29
2023-03-22T07:42:55.744Z,965.32
2023-03-22T07:43:58.367Z,965.33
2023-03-22T07:44:53.217Z,965.28
2023-03-22T07:45:53.187Z,965.25
2023-03-22T07:46:53.215Z,965.25
2023-03-22T07:47:53.273Z,965.28
2023-03-22T07:48:53.124Z,965.26
2023-03-22T07:49:53.153Z,965.26
2023-03-22T07:50:53.111Z,965.30
2023-03-22T07:51:53.417Z,965.27
2023-03-22T07:52:53.104Z,965.29
2023-03-22T07:53:53.184Z,965.27
2023-03-22T07:54:53.057Z,965.28
2023-03-22T07:55:53.049Z,965.26
2023-03-22T07:56:53.005Z,965.30
2023-03-22T07:57:53.062Z,965.31
2023-03-22T07:58:53.047Z,965.32
2023-03-22T07:59:53.016Z,965.32
2023-03-22T08:00:52.968Z,965.28
2023-03-22T08:01:53.089Z,965.26
2023-03-22T08:02:53.014Z,965.24
2023-03-22T08:03:53.014Z,965.24
2023-03-22T08:04:56.157Z,965.25
2023-03-22T08:05:52.946Z,965.22
2023-03-22T08:06:53.051Z,965.25
2023-03-22T08:07:53.007Z,965.27
2023-03-22T08:08:52.970Z,965.26
2023-03-22T08:09:52.969Z,965.28
2023-03-22T08:10:52.860Z,965.23
2023-03-22T08:11:52.987Z,965.24
2023-03-22T08:12:52.826Z,965.22
2023-03-22T08:13:52.996Z,965.24
2023-03-22T08:14:52.911Z,965.24
2023-03-22T08:15:52.988Z,965.28
2023-03-22T08:16:53.701Z,965.16
2023-03-22T08:17:53.628Z,965.17
2023-03-22T08:18:52.912Z,965.16
2023-03-22T08:19:52.734Z,965.20
2023-03-22T08:20:52.870Z,965.18
2023-03-22T08:21:52.864Z,965.17
2023-03-22T08:22:52.978Z,965.16
2023-03-22T08:23:52.779Z,965.21
2023-03-22T08:24:52.975Z,965.21
2023-03-22T08:25:52.648Z,965.17
2023-03-22T08:26:52.761Z,965.18
2023-03-22T08:27:52.605Z,965.21
2023-03-22T08:28:53.048Z,965.20
2023-03-22T08:29:52.618Z,965.23
2023-03-22T08:30:52.682Z,965.20
2023-03-22T08:31:52.815Z,965.24
2023-03-22T08:32:52.741Z,965.23
2023-03-22T08:33:52.638Z,965.23
2023-03-22T08:34:52.739Z,965.24
2023-03-22T08:35:53.085Z,965.24
2023-03-22T08:36:52.579Z,965.27
2023-03-22T08:37:52.663Z,965.27
2023-03-22T08:38:52.562Z,965.24
2023-03-22T08:39:52.583Z,965.24
2023-03-22T08:40:52.569Z,965.19
2023-03-22T08:41:52.538Z,965.18
2023-03-22T08:42:52.628Z,965.19
2023-03-22T08:43:52.523Z,965.19
2023-03-22T08:44:52.620Z,965.16
2023-03-22T08:45:52.409Z,965.17
2023-03-22T08:46:52.560Z,965.18
2023-03-22T08:47:52.565Z,965.18
2023-03-22T08:48:52.914Z,965.17
2023-03-22T08:49:52.323Z,965.22
2023-03-22T08:50:52.531Z,965.20
2023-03-22T08:51:52.749Z,965.16
2023-03-22T08:52:52.873Z,965.18
2023-03-22T08:53:52.795Z,965.19
2023-03-22T08:54:52.936Z,965.17
2023-03-22T08:55:52.424Z,965.13
2023-03-22T08:56:52.986Z,965.11
2023-03-22T08:57:52.439Z,965.12
2023-03-22T08:58:53.423Z,965.08
2023-03-22T08:59:53.596Z,965.08
2023-03-22T09:00:52.741Z,965.07
2023-03-22T09:01:52.479Z,965.06
2023-03-22T09:02:52.195Z,965.07
2023-03-22T09:03:52.444Z,965.04
2023-03-22T09:04:52.247Z,965.04
2023-03-22T09:05:52.562Z,965.01
2023-03-22T09:06:52.122Z,965.04
2023-03-22T09:07:52.205Z,965.01
2023-03-22T09:08:52.130Z,965.05
2023-03-22T09:09:52.391Z,964.98
2023-03-22T09:10:52.503Z,964.96
2023-03-22T09:11:52.507Z,964.93
2023-03-22T09:12:52.124Z,964.93
2023-03-22T09:13:52.052Z,964.97
2023-03-22T09:14:52.020Z,964.98
2023-03-22T09:15:52.122Z,964.90
2023-03-22T09:16:52.038Z,964.91
2023-03-22T09:17:52.203Z,964.90
2023-03-22T09:18:51.971Z,964.88
2023-03-22T09:20:02.726Z,964.87
2023-03-22T09:20:52.073Z,964.85
2023-03-22T09:21:52.052Z,964.84
2023-03-22T09:22:51.924Z,964.85
2023-03-22T09:23:52.006Z,964.80
2023-03-22T09:24:51.978Z,964.82
2023-03-22T09:25:52.036Z,964.85
2023-03-22T09:26:51.967Z,964.77
2023-03-22T09:27:52.127Z,964.76
2023-03-22T09:28:52.067Z,964.81
2023-03-22T09:29:51.880Z,964.82
2023-03-22T09:30:52.420Z,964.85
2023-03-22T09:31:52.162Z,964.83
2023-03-22T09:32:52.308Z,964.74
2023-03-22T09:33:51.936Z,964.77
2023-03-22T09:34:52.181Z,964.72
2023-03-22T09:35:51.993Z,964.68
2023-03-22T09:36:52.485Z,964.67
2023-03-22T09:37:52.246Z,964.65
2023-03-22T09:38:51.924Z,964.62
2023-03-22T09:39:52.315Z,964.70
2023-03-22T09:40:51.740Z,964.67
2023-03-22T09:41:51.769Z,964.72
2023-03-22T09:42:51.796Z,964.66
2023-03-22T09:43:51.677Z,964.67
2023-03-22T09:45:39.720Z,964.67
2023-03-22T09:45:51.751Z,964.63
2023-03-22T09:46:51.638Z,964.58
2023-03-22T09:47:51.887Z,964.59
2023-03-22T09:48:51.863Z,964.58
2023-03-22T09:49:54.108Z,964.53
2023-03-22T09:50:51.823Z,964.54
2023-03-22T09:51:52.269Z,964.56
2023-03-22T09:52:52.144Z,964.55
2023-03-22T09:53:52.423Z,964.57
2023-03-22T09:54:53.474Z,964.50
2023-03-22T09:55:51.685Z,964.54
2023-03-22T09:56:52.119Z,964.52
2023-03-22T09:57:52.364Z,964.55
2023-03-22T09:58:51.984Z,964.50
2023-03-22T09:59:52.571Z,964.58
2023-03-22T10:00:52.347Z,964.56
2023-03-22T10:01:52.474Z,964.55
2023-03-22T10:02:51.931Z,964.60
2023-03-22T10:03:51.900Z,964.65
2023-03-22T10:04:51.422Z,964.65
2023-03-22T10:05:51.490Z,964.66
2023-03-22T10:06:51.455Z,964.72
2023-03-22T10:07:51.535Z,964.65
2023-03-22T10:08:51.400Z,964.66
2023-03-22T10:09:51.435Z,964.71
2023-03-22T10:10:51.306Z,964.74
2023-03-22T10:11:51.405Z,964.65
2023-03-22T10:12:51.373Z,964.55
2023-03-22T10:13:51.366Z,964.52
2023-03-22T10:14:51.247Z,964.43
2023-03-22T10:15:51.611Z,964.40
2023-03-22T10:16:51.245Z,964.35
2023-03-22T10:17:51.304Z,964.36
2023-03-22T10:18:51.344Z,964.30
2023-03-22T10:19:51.197Z,964.26
2023-03-22T10:20:51.300Z,964.31
2023-03-22T10:21:51.168Z,964.27
2023-03-22T10:22:53.272Z,964.22
2023-03-22T10:23:51.137Z,964.24
2023-03-22T10:24:51.336Z,964.25
2023-03-22T10:25:51.141Z,964.17
2023-03-22T10:26:51.267Z,964.05
2023-03-22T10:27:51.097Z,963.93
2023-03-22T10:28:51.313Z,963.85
2023-03-22T10:29:51.211Z,963.69
2023-03-22T10:30:51.368Z,963.60
2023-03-22T10:31:51.182Z,963.54
2023-03-22T10:32:57.888Z,963.48
2023-03-22T10:33:51.076Z,963.44
2023-03-22T10:34:51.217Z,963.43
2023-03-22T10:35:51.135Z,963.55
2023-03-22T10:36:51.247Z,963.48
2023-03-22T10:37:50.996Z,963.58
2023-03-22T10:38:51.191Z,963.59
2023-03-22T10:39:50.970Z,963.77
2023-03-22T10:40:51.039Z,963.81
2023-03-22T10:41:51.204Z,963.81
2023-03-22T10:42:51.059Z,963.73
2023-03-22T10:43:50.933Z,963.75
2023-03-22T10:44:51.065Z,963.62
2023-03-22T10:45:50.902Z,963.67
2023-03-22T10:46:51.261Z,963.63
2023-03-22T10:47:50.974Z,963.54
2023-03-22T10:48:51.100Z,963.45
2023-03-22T10:49:51.144Z,963.36
2023-03-22T10:50:50.912Z,963.34
2023-03-22T10:51:50.949Z,963.26
2023-03-22T10:52:50.838Z,963.22
2023-03-22T10:53:51.065Z,963.21
2023-03-22T10:54:50.951Z,963.22
2023-03-22T10:55:50.969Z,963.13
2023-03-22T10:56:50.833Z,963.10
2023-03-22T10:57:50.945Z,963.14
2023-03-22T10:58:50.891Z,963.06
2023-03-22T10:59:50.926Z,963.04
2023-03-22T11:00:51.030Z,962.98
2023-03-22T11:01:51.065Z,962.98
2023-03-22T11:02:50.964Z,963.01
2023-03-22T11:03:50.892Z,962.95
2023-03-22T11:04:50.742Z,962.93
2023-03-22T11:05:50.882Z,962.93
2023-03-22T11:06:50.723Z,962.98
2023-03-22T11:07:50.847Z,962.92
2023-03-22T11:08:50.671Z,962.94
2023-03-22T11:09:50.917Z,963.04
2023-03-22T11:10:50.736Z,963.00
2023-03-22T11:11:50.840Z,962.99
2023-03-22T11:12:50.972Z,963.14
2023-03-22T11:13:50.744Z,963.17
2023-03-22T11:14:50.623Z,963.21
2023-03-22T11:15:50.862Z,963.24
2023-03-22T11:16:50.623Z,963.24
2023-03-22T11:17:50.801Z,963.33
2023-03-22T11:18:50.596Z,963.40
2023-03-22T11:19:50.879Z,963.37
2023-03-22T11:20:50.674Z,963.35
2023-03-22T11:21:50.518Z,963.30
2023-03-22T11:22:50.620Z,963.36
2023-03-22T11:23:50.504Z,963.46
2023-03-22T11:24:50.621Z,963.37
2023-03-22T11:25:50.665Z,963.38
2023-03-22T11:26:50.440Z,963.34
2023-03-22T11:27:50.626Z,963.43
2023-03-22T11:28:50.474Z,963.37
2023-03-22T11:29:50.449Z,963.37
2023-03-22T11:30:50.431Z,963.36
2023-03-22T11:31:50.771Z,963.39
2023-03-22T11:32:50.455Z,963.38
2023-03-22T11:33:50.549Z,963.39
2023-03-22T11:34:50.524Z,963.33
2023-03-22T11:35:50.539Z,963.28
2023-03-22T11:36:50.436Z,963.30
2023-03-22T11:37:50.445Z,963.28
2023-03-22T11:38:50.306Z,963.28
2023-03-22T11:39:50.440Z,963.28
2023-03-22T11:40:50.297Z,962.93
2023-03-22T11:41:50.452Z,962.92
2023-03-22T11:42:50.333Z,962.89
2023-03-22T11:43:51.432Z,962.93
2023-03-22T11:44:50.257Z,962.92
2023-03-22T11:45:50.276Z,962.92
2023-03-22T11:46:50.258Z,962.88
2023-03-22T11:47:50.376Z,962.89
2023-03-22T11:48:50.306Z,962.88
2023-03-22T11:49:50.323Z,962.82
2023-03-22T11:50:50.161Z,962.85
2023-03-22T11:51:50.204Z,962.82
2023-03-22T11:52:50.168Z,962.82
2023-03-22T11:53:50.214Z,962.82
2023-03-22T11:54:50.166Z,962.75
2023-03-22T11:55:50.243Z,962.77
2023-03-22T11:56:50.229Z,962.73
2023-03-22T11:57:50.093Z,962.73
2023-03-22T11:58:50.209Z,962.73
2023-03-22T11:59:50.040Z,962.67
2023-03-22T12:00:50.162Z,962.67
2023-03-22T12:01:50.069Z,962.74
2023-03-22T12:02:50.134Z,962.71
2023-03-22T12:03:50.288Z,962.70
2023-03-22T12:04:50.194Z,962.64
2023-03-22T12:05:50.200Z,962.66
2023-03-22T12:06:50.155Z,962.62
2023-03-22T12:07:49.986Z,962.61
2023-03-22T12:08:51.363Z,962.61
2023-03-22T12:09:49.920Z,962.53
2023-03-22T12:10:50.077Z,962.55
2023-03-22T12:11:49.900Z,962.51
2023-03-22T12:12:50.065Z,962.50
2023-03-22T12:13:50.137Z,962.45
2023-03-22T12:14:50.029Z,962.45
2023-03-22T12:15:49.944Z,962.47
2023-03-22T12:16:50.385Z,962.45
2023-03-22T12:17:49.985Z,962.51
2023-03-22T12:18:49.987Z,962.53
2023-03-22T12:19:50.374Z,962.51
2023-03-22T12:20:50.095Z,962.54
2023-03-22T12:21:49.782Z,962.46
2023-03-22T12:22:49.845Z,962.49
2023-03-22T12:23:49.764Z,962.42
2023-03-22T12:24:49.909Z,962.49
2023-03-22T12:25:49.762Z,962.47
2023-03-22T12:26:49.816Z,962.48
2023-03-22T12:27:49.922Z,962.45
2023-03-22T12:28:49.703Z,962.46